Sawbridgeworth, United Kingdom
Current Conditions -  °F | °C
As of 1:50 PM on Monday 24 Nov 2014 (Local Time) from EGSS Reporting Station
Clear Clear  
Wind Chill: 46°   Ceiling: Unl
Heat Index: 46°   Visibility: 6mi
Dew Point: 39°   Wind: 3mph
Humidity: 76%   Direction: 310°NW
Pressure: 30.33"   Gusts: NA
Location:  51.8°N, 0.14°E
Report Text: EGSS 241350Z 31003KT CAVOK 08/04 Q1027
Loading
Personal Weather Stations






























Interactive Weather Map New forecast layout! Learn more

10-Day Weather Forecast

Advertisements
Track Severe Weather on mobile